createdAt,value
2023-02-12T00:00:10.219Z,39.85
2023-02-12T00:02:37.145Z,30.20
2023-02-12T00:05:04.231Z,31.88
2023-02-12T00:07:31.587Z,36.00
2023-02-12T00:09:58.406Z,35.80
2023-02-12T00:12:25.290Z,35.50
2023-02-12T00:14:52.074Z,34.30
2023-02-12T00:17:19.040Z,40.63
2023-02-12T00:19:48.155Z,37.60
2023-02-12T00:22:15.076Z,33.17
2023-02-12T00:24:41.852Z,34.53
2023-02-12T00:27:08.708Z,36.17
2023-02-12T00:29:35.522Z,38.28
2023-02-12T00:32:02.421Z,37.95
2023-02-12T00:34:29.259Z,34.67
2023-02-12T00:36:56.039Z,34.67
2023-02-12T00:39:22.874Z,32.63
2023-02-12T00:41:49.654Z,36.92
2023-02-12T00:44:16.499Z,40.40
2023-02-12T00:46:43.334Z,39.30
2023-02-12T00:49:10.176Z,35.38
2023-02-12T00:51:36.938Z,33.30
2023-02-12T00:54:03.835Z,36.22
2023-02-12T00:56:30.630Z,34.63
2023-02-12T00:58:57.522Z,34.67
2023-02-12T01:01:24.614Z,37.55
2023-02-12T01:03:51.471Z,40.70
2023-02-12T01:06:18.324Z,37.50
2023-02-12T01:08:45.147Z,36.47
2023-02-12T01:11:13.253Z,33.88
2023-02-12T01:13:40.049Z,36.67
2023-02-12T01:16:15.100Z,31.27
2023-02-12T01:18:42.022Z,35.00
2023-02-12T01:21:17.756Z,33.50
2023-02-12T01:23:45.241Z,34.55
2023-02-12T01:26:13.124Z,34.85
2023-02-12T01:28:42.089Z,37.78
2023-02-12T01:31:14.721Z,42.38
2023-02-12T01:33:42.135Z,36.05
2023-02-12T01:36:11.042Z,31.58
2023-02-12T01:38:37.891Z,35.30
2023-02-12T01:41:10.360Z,34.03
2023-02-12T01:43:38.040Z,37.17
2023-02-12T01:46:05.494Z,36.83
2023-02-12T01:48:50.725Z,37.92
2023-02-12T01:51:20.545Z,33.90
2023-02-12T01:53:54.515Z,35.92
2023-02-12T01:56:23.741Z,33.15
2023-02-12T01:58:52.760Z,36.22
2023-02-12T02:01:26.387Z,31.02
2023-02-12T02:03:58.634Z,33.42
2023-02-12T02:06:38.334Z,35.47
2023-02-12T02:09:05.798Z,38.42
2023-02-12T02:11:51.284Z,35.28
2023-02-12T02:14:33.863Z,36.97
2023-02-12T02:17:33.014Z,31.17
2023-02-12T02:20:11.458Z,34.13
2023-02-12T02:23:29.809Z,34.25
2023-02-12T02:26:17.586Z,36.58
2023-02-12T02:29:30.716Z,35.53
2023-02-12T02:32:10.258Z,37.90
2023-02-12T02:34:59.272Z,32.47
2023-02-12T02:37:35.509Z,40.38
2023-02-12T02:40:27.219Z,38.35
2023-02-12T02:43:05.678Z,34.70
2023-02-12T02:45:42.691Z,32.22
2023-02-12T02:48:21.438Z,34.03
2023-02-12T02:50:52.848Z,33.92
2023-02-12T02:53:29.938Z,41.33
2023-02-12T02:56:00.126Z,31.92
2023-02-12T02:58:36.402Z,31.67
2023-02-12T03:01:06.169Z,36.20
2023-02-12T03:03:38.145Z,29.42
2023-02-12T03:06:10.377Z,33.30
2023-02-12T03:08:42.895Z,37.40
2023-02-12T03:11:19.944Z,40.25
2023-02-12T03:13:56.601Z,32.88
2023-02-12T03:16:31.744Z,33.33
2023-02-12T03:19:19.278Z,37.88
2023-02-12T03:22:01.846Z,36.50
2023-02-12T03:24:50.037Z,37.25
2023-02-12T03:27:28.470Z,36.40
2023-02-12T03:29:56.034Z,39.42
2023-02-12T03:32:47.453Z,34.90
2023-02-12T03:35:24.695Z,41.97
2023-02-12T03:38:16.362Z,33.63
2023-02-12T03:40:58.458Z,35.25
2023-02-12T03:43:35.350Z,31.35
2023-02-12T03:46:25.392Z,34.80
2023-02-12T03:49:03.678Z,33.63
2023-02-12T03:51:42.802Z,37.92
2023-02-12T03:54:12.984Z,35.95
2023-02-12T03:56:45.479Z,31.55
2023-02-12T03:59:12.493Z,30.83
2023-02-12T04:01:39.607Z,33.00
2023-02-12T04:04:08.599Z,35.13
2023-02-12T04:06:36.291Z,32.42
2023-02-12T04:09:07.357Z,36.20
2023-02-12T04:11:45.894Z,35.72
2023-02-12T04:14:12.625Z,36.70
2023-02-12T04:17:09.038Z,37.17
2023-02-12T04:19:45.004Z,31.40
2023-02-12T04:22:29.945Z,33.15
2023-02-12T04:25:05.640Z,36.15
2023-02-12T04:28:20.406Z,41.42
2023-02-12T04:31:17.938Z,34.58
2023-02-12T04:33:59.077Z,38.38
2023-02-12T04:36:31.308Z,35.53
2023-02-12T04:39:01.656Z,33.25
2023-02-12T04:41:28.921Z,31.90
2023-02-12T04:43:55.910Z,36.72
2023-02-12T04:46:22.791Z,37.53
2023-02-12T04:48:58.912Z,35.08
2023-02-12T04:51:25.787Z,36.88
2023-02-12T04:53:52.550Z,34.65
2023-02-12T04:56:19.376Z,34.00
2023-02-12T04:58:46.149Z,40.28
2023-02-12T05:01:13.778Z,36.65
2023-02-12T05:03:40.574Z,37.75
2023-02-12T05:06:08.877Z,43.38
2023-02-12T05:08:36.185Z,36.05
2023-02-12T05:11:08.176Z,40.35
2023-02-12T05:13:35.520Z,34.90
2023-02-12T05:16:07.279Z,38.53
2023-02-12T05:18:35.328Z,35.35
2023-02-12T05:21:04.652Z,36.92
2023-02-12T05:23:34.267Z,36.20
2023-02-12T05:26:02.953Z,41.20
2023-02-12T05:28:30.381Z,35.17
2023-02-12T05:31:02.699Z,32.90
2023-02-12T05:33:29.637Z,34.28
2023-02-12T05:35:56.828Z,32.55
2023-02-12T05:38:23.837Z,36.97
2023-02-12T05:40:50.629Z,35.20
2023-02-12T05:43:17.423Z,37.45
2023-02-12T05:45:45.105Z,42.40
2023-02-12T05:48:11.910Z,36.03
2023-02-12T05:50:38.711Z,36.45
2023-02-12T05:53:05.517Z,39.58
2023-02-12T05:55:32.379Z,47.25
2023-02-12T05:57:59.159Z,39.72
2023-02-12T06:00:26.118Z,44.50
2023-02-12T06:02:53.260Z,46.47
2023-02-12T06:05:20.122Z,43.17
2023-02-12T06:07:46.931Z,47.60
2023-02-12T06:10:13.695Z,38.53
2023-02-12T06:12:40.489Z,45.10
2023-02-12T06:15:07.631Z,48.17
2023-02-12T06:17:35.368Z,49.90
2023-02-12T06:20:02.552Z,49.22
2023-02-12T06:22:29.346Z,57.42
2023-02-12T06:24:56.109Z,49.05
2023-02-12T06:27:22.917Z,55.55
2023-02-12T06:29:49.703Z,55.25
2023-02-12T06:32:16.519Z,58.20
2023-02-12T06:34:43.385Z,52.75
2023-02-12T06:37:10.267Z,49.30
2023-02-12T06:39:37.053Z,55.03
2023-02-12T06:42:03.963Z,46.83
2023-02-12T06:44:30.847Z,50.47
2023-02-12T06:46:59.119Z,53.75
2023-02-12T06:49:26.030Z,59.00
2023-02-12T06:51:52.854Z,50.92
2023-02-12T06:54:19.756Z,53.08
2023-02-12T06:56:46.615Z,51.42
2023-02-12T06:59:15.940Z,49.95
2023-02-12T07:01:43.405Z,50.22
2023-02-12T07:04:11.573Z,51.22
2023-02-12T07:06:38.462Z,47.92
2023-02-12T07:09:05.609Z,53.25
2023-02-12T07:11:38.303Z,49.55
2023-02-12T07:14:05.952Z,53.08
2023-02-12T07:16:32.800Z,58.03
2023-02-12T07:18:59.670Z,64.03
2023-02-12T07:21:26.458Z,52.28
2023-02-12T07:23:53.762Z,51.70
2023-02-12T07:26:21.641Z,57.25
2023-02-12T07:28:49.570Z,47.40
2023-02-12T07:31:21.717Z,55.30
2023-02-12T07:33:49.047Z,55.60
2023-02-12T07:36:18.202Z,52.85
2023-02-12T07:38:45.065Z,49.90
2023-02-12T07:41:18.058Z,64.07
2023-02-12T07:43:46.267Z,61.92
2023-02-12T07:46:19.549Z,55.92
2023-02-12T07:48:47.634Z,64.60
2023-02-12T07:51:16.752Z,57.15
2023-02-12T07:53:43.591Z,61.38
2023-02-12T07:56:19.811Z,59.28
2023-02-12T07:58:48.690Z,60.67
2023-02-12T08:01:20.337Z,62.88
2023-02-12T08:03:48.281Z,61.05
2023-02-12T08:06:21.781Z,59.10
2023-02-12T08:08:50.849Z,63.92
2023-02-12T08:11:18.872Z,63.08
2023-02-12T08:13:46.263Z,59.60
2023-02-12T08:16:16.605Z,60.97
2023-02-12T08:18:44.319Z,64.18
2023-02-12T08:21:14.249Z,58.35
2023-02-12T08:23:41.785Z,58.97
2023-02-12T08:26:22.054Z,57.22
2023-02-12T08:28:51.525Z,58.72
2023-02-12T08:31:22.171Z,56.78
2023-02-12T08:33:51.045Z,53.63
2023-02-12T08:36:20.339Z,51.83
2023-02-12T08:38:48.605Z,50.88
2023-02-12T08:41:21.762Z,52.25
2023-02-12T08:43:52.687Z,52.53
2023-02-12T08:46:25.540Z,48.38
2023-02-12T08:48:54.711Z,49.58
2023-02-12T08:51:26.954Z,46.80
2023-02-12T08:53:56.575Z,46.30
2023-02-12T08:56:24.413Z,51.10
2023-02-12T08:58:51.579Z,47.47
2023-02-12T09:01:23.977Z,45.40
2023-02-12T09:03:51.811Z,49.67
2023-02-12T09:06:20.860Z,40.50
2023-02-12T09:08:48.348Z,38.15
2023-02-12T09:11:17.994Z,42.13
2023-02-12T09:13:46.579Z,33.53
2023-02-12T09:16:14.515Z,31.90
2023-02-12T09:18:41.971Z,32.13
2023-02-12T09:21:12.514Z,30.83
2023-02-12T09:23:39.711Z,29.75
2023-02-12T09:26:08.913Z,32.95
2023-02-12T09:28:36.067Z,35.92
2023-02-12T09:31:14.602Z,41.35
2023-02-12T09:33:41.856Z,42.65
2023-02-12T09:36:11.593Z,42.95
2023-02-12T09:38:38.563Z,41.75
2023-02-12T09:41:08.463Z,39.13
2023-02-12T09:43:35.192Z,42.13
2023-02-12T09:46:11.186Z,36.00
2023-02-12T09:48:49.036Z,35.92
2023-02-12T09:51:16.117Z,31.80
2023-02-12T09:53:47.582Z,33.47
2023-02-12T09:56:19.644Z,32.05
2023-02-12T09:58:48.231Z,39.67
2023-02-12T10:01:18.661Z,32.75
2023-02-12T10:03:47.675Z,33.38
2023-02-12T10:06:27.531Z,31.45
2023-02-12T10:09:21.350Z,37.65
2023-02-12T10:12:03.489Z,28.27
2023-02-12T10:14:50.434Z,22.80
2023-02-12T10:17:48.622Z,22.35
2023-02-12T10:20:41.502Z,9.85
2023-02-12T10:23:39.739Z,6.20
2023-02-12T10:26:33.339Z,5.70
2023-02-12T10:29:17.752Z,6.47
2023-02-12T10:31:48.846Z,7.65
2023-02-12T10:34:17.897Z,11.88
2023-02-12T10:36:49.799Z,12.38
2023-02-12T10:39:36.202Z,13.38
2023-02-12T10:42:21.655Z,10.48
2023-02-12T10:44:48.415Z,9.57
2023-02-12T10:47:20.847Z,9.95
2023-02-12T10:49:57.794Z,10.88
2023-02-12T10:52:35.462Z,7.10
2023-02-12T10:55:02.239Z,8.93
2023-02-12T10:57:31.498Z,8.45
2023-02-12T11:00:24.127Z,7.22
2023-02-12T11:03:11.761Z,4.47
2023-02-12T11:05:44.415Z,4.25
2023-02-12T11:08:31.452Z,3.00
2023-02-12T11:11:31.933Z,3.80
2023-02-12T11:14:06.028Z,4.07
2023-02-12T11:16:37.630Z,1.65
2023-02-12T11:19:07.190Z,3.53
2023-02-12T11:21:35.695Z,4.68
2023-02-12T11:24:20.930Z,3.20
2023-02-12T11:26:47.711Z,6.50
2023-02-12T11:29:24.598Z,2.10
2023-02-12T11:32:02.882Z,3.20
2023-02-12T11:34:30.259Z,3.88
2023-02-12T11:36:58.058Z,4.25
2023-02-12T11:39:37.756Z,1.60
2023-02-12T11:42:16.586Z,2.33
2023-02-12T11:44:48.833Z,1.60
2023-02-12T11:47:25.344Z,1.60
2023-02-12T11:49:56.795Z,1.70
2023-02-12T11:52:26.993Z,10.50
2023-02-12T11:54:57.333Z,2.50
2023-02-12T11:57:36.252Z,1.90
2023-02-12T12:00:12.126Z,1.80
2023-02-12T12:02:44.101Z,4.33
2023-02-12T12:05:18.497Z,1.93
2023-02-12T12:07:58.628Z,1.80
2023-02-12T12:10:36.630Z,1.80
2023-02-12T12:13:11.928Z,3.57
2023-02-12T12:16:04.891Z,3.20
2023-02-12T12:19:15.387Z,3.90
2023-02-12T12:22:05.069Z,7.93
2023-02-12T12:25:10.223Z,4.30
2023-02-12T12:28:01.912Z,4.03
2023-02-12T12:30:56.035Z,6.93
2023-02-12T12:33:43.469Z,5.23
2023-02-12T12:36:13.399Z,6.30
2023-02-12T12:38:48.832Z,7.37
2023-02-12T12:41:26.488Z,6.90
2023-02-12T12:44:02.466Z,8.57
2023-02-12T12:46:44.749Z,7.63
2023-02-12T12:49:22.556Z,6.37
2023-02-12T12:52:24.522Z,8.13
2023-02-12T12:55:24.359Z,9.77
2023-02-12T12:58:12.730Z,9.20
2023-02-12T13:01:10.372Z,9.27
2023-02-12T13:03:49.272Z,8.77
2023-02-12T13:06:23.516Z,7.93
2023-02-12T13:09:14.426Z,13.03
2023-02-12T13:11:48.106Z,9.10
2023-02-12T13:14:53.671Z,8.20
2023-02-12T13:17:29.773Z,10.50
2023-02-12T13:20:27.097Z,6.60
2023-02-12T13:23:02.150Z,6.47
2023-02-12T13:25:43.626Z,7.63
2023-02-12T13:28:27.715Z,8.13
2023-02-12T13:30:56.299Z,7.07
2023-02-12T13:33:28.936Z,6.53
2023-02-12T13:36:00.560Z,6.67
2023-02-12T13:38:37.930Z,7.00
2023-02-12T13:41:11.214Z,6.03
2023-02-12T13:43:46.190Z,6.90
2023-02-12T13:46:31.740Z,6.10
2023-02-12T13:49:07.604Z,10.33
2023-02-12T13:51:47.732Z,5.40
2023-02-12T13:54:23.524Z,4.87
2023-02-12T13:56:56.353Z,6.13
2023-02-12T13:59:32.288Z,5.63
2023-02-12T14:02:02.333Z,6.97
2023-02-12T14:04:32.934Z,8.67
2023-02-12T14:07:12.551Z,9.10
2023-02-12T14:09:43.952Z,6.73
2023-02-12T14:12:14.328Z,7.53
2023-02-12T14:14:44.557Z,11.23
2023-02-12T14:17:29.506Z,10.93
2023-02-12T14:20:07.138Z,10.50
2023-02-12T14:22:33.856Z,13.93
2023-02-12T14:25:24.875Z,13.77
2023-02-12T14:28:06.575Z,13.77
2023-02-12T14:30:40.156Z,12.70
2023-02-12T14:33:07.263Z,11.10
2023-02-12T14:35:45.755Z,9.90
2023-02-12T14:38:12.476Z,10.90
2023-02-12T14:40:52.665Z,11.53
2023-02-12T14:43:24.736Z,13.90
2023-02-12T14:45:51.521Z,8.43
2023-02-12T14:48:44.257Z,8.40
2023-02-12T14:51:37.569Z,14.90
2023-02-12T14:54:13.154Z,9.03
2023-02-12T14:56:48.796Z,11.23
2023-02-12T14:59:24.280Z,12.60
2023-02-12T15:01:52.279Z,9.87
2023-02-12T15:04:27.779Z,11.00
2023-02-12T15:07:08.407Z,11.37
2023-02-12T15:09:51.493Z,13.07
2023-02-12T15:12:32.723Z,9.77
2023-02-12T15:15:05.082Z,11.47
2023-02-12T15:17:37.920Z,9.93
2023-02-12T15:20:20.151Z,11.57
2023-02-12T15:22:47.254Z,13.20
2023-02-12T15:25:30.243Z,12.20
2023-02-12T15:28:15.785Z,12.63
2023-02-12T15:30:43.310Z,13.90
2023-02-12T15:33:19.578Z,13.87
2023-02-12T15:35:46.378Z,15.90
2023-02-12T15:38:22.433Z,15.47
2023-02-12T15:40:57.089Z,16.93
2023-02-12T15:43:27.975Z,15.87
2023-02-12T15:45:54.819Z,13.77
2023-02-12T15:48:28.592Z,15.70
2023-02-12T15:51:00.979Z,16.10
2023-02-12T15:53:30.759Z,15.33
2023-02-12T15:55:58.854Z,18.50
2023-02-12T15:58:49.701Z,20.20
2023-02-12T16:01:26.750Z,17.20
2023-02-12T16:03:56.688Z,21.27
2023-02-12T16:06:25.741Z,22.03
2023-02-12T16:09:26.154Z,18.07
2023-02-12T16:11:53.732Z,19.57
2023-02-12T16:14:44.670Z,19.17
2023-02-12T16:17:37.118Z,19.65
2023-02-12T16:20:21.806Z,23.95
2023-02-12T16:22:51.584Z,23.45
2023-02-12T16:25:29.039Z,24.63
2023-02-12T16:28:01.902Z,23.13
2023-02-12T16:30:38.825Z,24.10
2023-02-12T16:33:40.624Z,26.02
2023-02-12T16:36:20.088Z,28.00
2023-02-12T16:38:47.656Z,29.00
2023-02-12T16:41:31.152Z,31.73
2023-02-12T16:44:00.763Z,35.40
2023-02-12T16:46:31.898Z,37.22
2023-02-12T16:49:00.813Z,34.35
2023-02-12T16:51:29.644Z,34.60
2023-02-12T16:53:58.647Z,37.85
2023-02-12T16:56:28.458Z,39.22
2023-02-12T16:58:58.918Z,38.75
2023-02-12T17:01:28.601Z,39.20
2023-02-12T17:03:57.713Z,36.70
2023-02-12T17:06:27.644Z,36.67
2023-02-12T17:08:54.553Z,35.00
2023-02-12T17:11:23.274Z,32.75
2023-02-12T17:13:52.146Z,37.20
2023-02-12T17:16:30.334Z,38.60
2023-02-12T17:18:58.820Z,37.60
2023-02-12T17:21:29.973Z,35.78
2023-02-12T17:23:56.786Z,32.55
2023-02-12T17:26:24.758Z,31.73
2023-02-12T17:28:51.574Z,34.35
2023-02-12T17:31:20.772Z,37.40
2023-02-12T17:33:47.697Z,36.97
2023-02-12T17:36:14.662Z,36.20
2023-02-12T17:38:41.425Z,34.78
2023-02-12T17:41:11.569Z,37.30
2023-02-12T17:43:38.472Z,37.92
2023-02-12T17:46:14.154Z,41.40
2023-02-12T17:48:40.954Z,41.08
2023-02-12T17:51:09.954Z,43.05
2023-02-12T17:53:36.855Z,37.08
2023-02-12T17:56:04.261Z,41.17
2023-02-12T17:58:31.369Z,44.38
2023-02-12T18:01:03.712Z,41.47
2023-02-12T18:03:30.511Z,34.00
2023-02-12T18:05:57.283Z,39.80
2023-02-12T18:08:24.063Z,43.50
2023-02-12T18:10:50.804Z,37.42
2023-02-12T18:13:17.664Z,43.97
2023-02-12T18:15:44.467Z,46.58
2023-02-12T18:18:11.501Z,39.95
2023-02-12T18:20:40.875Z,44.28
2023-02-12T18:23:08.542Z,48.38
2023-02-12T18:25:39.957Z,47.05
2023-02-12T18:28:07.035Z,43.40
2023-02-12T18:30:33.894Z,46.80
2023-02-12T18:33:00.735Z,39.47
2023-02-12T18:35:27.616Z,44.97
2023-02-12T18:37:54.475Z,47.38
2023-02-12T18:40:21.337Z,41.50
2023-02-12T18:42:48.210Z,44.38
2023-02-12T18:45:15.055Z,41.50
2023-02-12T18:47:42.049Z,38.28
2023-02-12T18:50:09.794Z,41.22
2023-02-12T18:52:37.477Z,38.13
2023-02-12T18:55:07.191Z,45.97
2023-02-12T18:57:34.024Z,37.45
2023-02-12T19:00:00.809Z,41.45
2023-02-12T19:02:27.852Z,39.75
2023-02-12T19:04:54.779Z,45.85
2023-02-12T19:07:21.669Z,44.25
2023-02-12T19:09:48.459Z,44.88
2023-02-12T19:12:15.213Z,41.60
2023-02-12T19:14:41.991Z,39.80
2023-02-12T19:17:08.761Z,39.45
2023-02-12T19:19:35.557Z,45.20
2023-02-12T19:22:02.380Z,39.65
2023-02-12T19:24:44.469Z,39.13
2023-02-12T19:27:12.994Z,39.88
2023-02-12T19:29:39.848Z,34.88
2023-02-12T19:32:06.820Z,42.00
2023-02-12T19:34:33.678Z,48.67
2023-02-12T19:37:00.453Z,39.22
2023-02-12T19:39:27.526Z,38.92
2023-02-12T19:41:56.143Z,40.60
2023-02-12T19:44:24.849Z,40.28
2023-02-12T19:46:52.549Z,41.70
2023-02-12T19:49:23.228Z,43.83
2023-02-12T19:51:50.269Z,31.70
2023-02-12T19:54:18.159Z,36.45
2023-02-12T19:56:45.217Z,33.33
2023-02-12T19:59:14.072Z,37.60
2023-02-12T20:01:41.178Z,42.20
2023-02-12T20:04:08.002Z,37.72
2023-02-12T20:06:37.007Z,34.67
2023-02-12T20:09:06.149Z,41.75
2023-02-12T20:11:37.404Z,35.60
2023-02-12T20:14:05.493Z,31.77
2023-02-12T20:16:37.880Z,40.00
2023-02-12T20:19:28.571Z,30.50
2023-02-12T20:21:57.494Z,38.38
2023-02-12T20:24:26.464Z,34.63
2023-02-12T20:26:54.399Z,37.78
2023-02-12T20:29:21.626Z,45.38
2023-02-12T20:31:49.070Z,34.63
2023-02-12T20:34:17.931Z,37.03
2023-02-12T20:36:46.274Z,35.78
2023-02-12T20:39:16.266Z,42.53
2023-02-12T20:41:43.385Z,35.90
2023-02-12T20:44:14.400Z,43.20
2023-02-12T20:46:43.823Z,34.72
2023-02-12T20:49:13.615Z,32.03
2023-02-12T20:51:40.985Z,44.90
2023-02-12T20:54:08.116Z,39.92
2023-02-12T20:56:36.539Z,37.70
2023-02-12T20:59:04.736Z,34.15
2023-02-12T21:01:39.854Z,37.42
2023-02-12T21:04:14.908Z,38.95
2023-02-12T21:06:42.793Z,30.65
2023-02-12T21:09:12.577Z,36.65
2023-02-12T21:11:42.107Z,47.95
2023-02-12T21:14:21.977Z,44.20
2023-02-12T21:16:49.942Z,29.83
2023-02-12T21:19:18.100Z,31.10
2023-02-12T21:21:45.674Z,28.23
2023-02-12T21:24:18.284Z,24.48
2023-02-12T21:26:45.178Z,34.67
2023-02-12T21:29:11.983Z,27.75
2023-02-12T21:31:43.955Z,36.78
2023-02-12T21:34:15.253Z,30.20
2023-02-12T21:36:45.094Z,27.17
2023-02-12T21:39:14.499Z,39.00
2023-02-12T21:41:42.738Z,44.50
2023-02-12T21:44:15.689Z,27.05
2023-02-12T21:46:43.400Z,31.50
2023-02-12T21:49:13.124Z,25.35
2023-02-12T21:51:42.616Z,36.63
2023-02-12T21:54:15.576Z,29.75
2023-02-12T21:56:44.190Z,36.83
2023-02-12T21:59:11.667Z,31.85
2023-02-12T22:01:43.517Z,49.80
2023-02-12T22:04:10.736Z,52.75
2023-02-12T22:06:43.605Z,29.30
2023-02-12T22:09:11.571Z,32.42
2023-02-12T22:11:39.899Z,28.23
2023-02-12T22:14:08.340Z,38.80
2023-02-12T22:16:36.309Z,53.78
2023-02-12T22:19:04.072Z,62.47
2023-02-12T22:21:37.545Z,37.30
2023-02-12T22:24:07.985Z,55.90
2023-02-12T22:26:35.526Z,30.42
2023-02-12T22:29:07.907Z,69.43
2023-02-12T22:31:37.177Z,44.95
2023-02-12T22:34:07.286Z,68.05
2023-02-12T22:36:36.020Z,52.35
2023-02-12T22:39:03.722Z,35.15
2023-02-12T22:41:31.179Z,44.65
2023-02-12T22:44:04.985Z,56.85
2023-02-12T22:46:32.246Z,56.88
2023-02-12T22:48:59.664Z,50.65
2023-02-12T22:51:30.062Z,43.85
2023-02-12T22:53:57.218Z,35.35
2023-02-12T22:56:25.196Z,32.13
2023-02-12T22:58:56.913Z,57.60
2023-02-12T23:01:24.609Z,52.92
2023-02-12T23:03:51.868Z,35.50
2023-02-12T23:06:23.424Z,56.72
2023-02-12T23:08:52.377Z,35.63
2023-02-12T23:11:19.559Z,54.53
2023-02-12T23:13:46.905Z,70.70
2023-02-12T23:16:13.837Z,48.53
2023-02-12T23:18:40.627Z,32.65
2023-02-12T23:21:07.443Z,23.13
2023-02-12T23:23:34.244Z,47.70
2023-02-12T23:26:01.637Z,33.53
2023-02-12T23:28:29.596Z,29.13
2023-02-12T23:30:56.952Z,24.10
2023-02-12T23:33:24.321Z,33.90
2023-02-12T23:35:51.448Z,33.50
2023-02-12T23:38:18.563Z,29.38
2023-02-12T23:40:46.675Z,31.38
2023-02-12T23:43:13.468Z,39.25
2023-02-12T23:45:40.311Z,23.77
2023-02-12T23:48:07.155Z,29.67
2023-02-12T23:50:33.974Z,32.58
2023-02-12T23:53:00.743Z,22.48
2023-02-12T23:55:27.693Z,28.23
2023-02-12T23:57:54.511Z,27.13
